Time;durP1;ratioP1;P1;durP2;ratioP2;P2;SDS_P1;SDS_P2;PMS_P1;PMS_P2;Temp;Humidity;BMP_temperature;BMP_pressure;BME280_temperature;BME280_humidity;BME280_pressure;Samples;Min_cycle;Max_cycle;Signal;HPM_P1;HPM_P2
2022/01/24 00:00:17;;;;;;;13.27;7.53;;;-0.30;99.90;;;;;;5019257;28;20029;-49
2022/01/24 00:02:43;;;;;;;13.95;9.30;;;-0.30;99.90;;;;;;5018154;28;20045;-50
2022/01/24 00:05:11;;;;;;;15.57;10.05;;;-0.40;99.90;;;;;;5027651;28;20119;-49
2022/01/24 00:07:37;;;;;;;21.83;11.63;;;-0.40;99.90;;;;;;5021571;28;20044;-49
2022/01/24 00:10:08;;;;;;;18.35;11.23;;;-0.50;99.90;;;;;;5020258;28;20033;-50
2022/01/24 00:15:35;;;;;;;20.48;11.77;;;-0.50;99.90;;;;;;5019403;28;20044;-50
2022/01/24 00:18:26;;;;;;;16.85;9.93;;;-0.60;99.90;;;;;;5047652;28;20051;-50
2022/01/24 00:29:04;;;;;;;17.92;9.77;;;-0.40;99.90;;;;;;5019256;28;20056;-49
2022/01/24 00:31:29;;;;;;;19.65;9.38;;;-0.30;99.90;;;;;;5020602;28;20541;-49
2022/01/24 00:33:55;;;;;;;15.52;9.13;;;-0.40;99.90;;;;;;5022052;28;20025;-49
2022/01/24 00:36:20;;;;;;;17.70;10.07;;;-0.40;99.90;;;;;;5018738;28;20100;-50
2022/01/24 00:38:46;;;;;;;13.15;8.63;;;-0.40;99.90;;;;;;5019513;28;20041;-49
2022/01/24 00:41:15;;;;;;;13.32;8.77;;;-0.40;99.90;;;;;;5024170;28;20430;-49
2022/01/24 00:46:40;;;;;;;9.85;6.63;;;-0.20;99.90;;;;;;5030551;28;20075;-50
2022/01/24 00:56:59;;;;;;;8.52;6.07;;;0.20;99.90;;;;;;5017651;28;20106;-51
2022/01/24 00:59:25;;;;;;;10.05;7.20;;;0.30;99.90;;;;;;5020739;28;20627;-50
2022/01/24 01:01:52;;;;;;;9.57;6.60;;;0.40;99.90;;;;;;5018282;28;20613;-50
2022/01/24 01:04:20;;;;;;;10.57;6.57;;;0.50;99.90;;;;;;5018656;28;20505;-50
2022/01/24 01:06:46;;;;;;;13.68;6.03;;;0.60;99.90;;;;;;5030803;28;20219;-50
2022/01/24 01:20:09;;;;;;;6.63;5.55;;;0.90;99.90;;;;;;5025180;28;20095;-50
2022/01/24 01:22:34;;;;;;;6.07;4.85;;;1.00;99.90;;;;;;5017530;28;20042;-50
2022/01/24 01:25:00;;;;;;;10.13;6.53;;;1.00;99.90;;;;;;5018120;28;21104;-51
2022/01/24 01:27:34;;;;;;;9.48;6.38;;;1.00;99.90;;;;;;5017347;28;20042;-51
2022/01/24 01:30:16;;;;;;;10.15;5.95;;;1.00;99.90;;;;;;5024732;28;20033;-50
2022/01/24 01:33:00;;;;;;;7.90;5.38;;;1.00;99.90;;;;;;5017006;28;20384;-49
2022/01/24 01:52:19;;;;;;;;;;;1.00;99.90;;;;;;5020441;28;20049;-50
2022/01/24 01:54:51;;;;;;;6.65;4.97;;;0.90;99.90;;;;;;5022321;28;20046;-50
2022/01/24 01:57:19;;;;;;;7.47;5.38;;;0.90;99.90;;;;;;5014694;28;20076;-49
2022/01/24 01:59:46;;;;;;;8.70;5.93;;;0.90;99.90;;;;;;5018589;28;20030;-50
2022/01/24 02:02:12;;;;;;;8.40;5.85;;;0.90;99.90;;;;;;5019534;28;21552;-50
2022/01/24 02:04:39;;;;;;;8.23;5.18;;;0.90;99.90;;;;;;5020531;28;20025;-52
2022/01/24 02:07:09;;;;;;;8.85;6.32;;;0.90;99.90;;;;;;5014541;28;20123;-50
2022/01/24 02:09:35;;;;;;;23.17;10.88;;;0.90;99.90;;;;;;5019977;28;20048;-50
2022/01/24 02:12:00;;;;;;;50.40;20.98;;;0.80;99.90;;;;;;5018551;28;20022;-49
2022/01/24 02:14:33;;;;;;;29.25;12.27;;;0.80;99.90;;;;;;5012919;28;20083;-52
2022/01/24 02:17:10;;;;;;;19.85;10.25;;;0.70;99.90;;;;;;5013789;28;20048;-50
2022/01/24 02:24:33;;;;;;;15.85;8.70;;;0.60;99.90;;;;;;5016186;28;20030;-50
2022/01/24 02:26:59;;;;;;;10.48;6.40;;;0.60;99.90;;;;;;5032399;28;20078;-49
2022/01/24 02:31:55;;;;;;;14.82;7.82;;;0.40;99.90;;;;;;5016268;28;20033;-52
2022/01/24 02:34:37;;;;;;;10.23;6.00;;;0.40;99.90;;;;;;5016666;28;20460;-50
2022/01/24 02:37:06;;;;;;;7.68;5.70;;;0.40;99.90;;;;;;5014214;28;20364;-50
2022/01/24 02:50:46;;;;;;;6.13;5.47;;;0.10;99.90;;;;;;5016245;28;21206;-51
2022/01/24 02:53:12;;;;;;;8.02;5.43;;;-0.10;99.90;;;;;;5021573;28;20056;-50
2022/01/24 02:55:39;;;;;;;7.43;4.88;;;-0.20;99.90;;;;;;5017788;28;20500;-51
2022/01/24 02:58:05;;;;;;;11.18;6.05;;;-0.30;99.90;;;;;;5012787;28;20693;-51
2022/01/24 03:00:31;;;;;;;9.13;5.10;;;-0.30;99.90;;;;;;5013377;28;20179;-50
2022/01/24 03:02:57;;;;;;;8.27;6.18;;;-0.30;99.90;;;;;;5018894;28;20033;-50
2022/01/24 03:05:23;;;;;;;8.43;5.88;;;-0.40;99.90;;;;;;5021210;28;20053;-52
2022/01/24 03:07:48;;;;;;;10.45;6.25;;;-0.50;99.90;;;;;;5019550;28;21216;-50
2022/01/24 03:10:25;;;;;;;8.43;5.88;;;-0.60;99.90;;;;;;5022747;28;22228;-50
2022/01/24 03:13:09;;;;;;;7.72;5.88;;;-0.60;99.90;;;;;;5025090;28;20490;-50
2022/01/24 03:15:35;;;;;;;12.00;6.72;;;-0.60;99.90;;;;;;5027928;28;20052;-50
2022/01/24 03:18:01;;;;;;;7.90;5.22;;;-0.60;99.90;;;;;;5021396;28;20482;-50
2022/01/24 03:20:26;;;;;;;7.88;5.63;;;-0.60;99.90;;;;;;5013183;28;20091;-50
2022/01/24 03:22:52;;;;;;;8.63;5.82;;;-0.70;99.90;;;;;;5016115;28;20477;-51
2022/01/24 03:25:18;;;;;;;5.65;4.90;;;-0.70;99.90;;;;;;5017812;28;20044;-50
2022/01/24 03:27:43;;;;;;;9.05;5.82;;;-0.60;99.90;;;;;;5021246;28;20033;-50
2022/01/24 03:30:09;;;;;;;8.60;4.80;;;-0.60;99.90;;;;;;5020319;28;20625;-50
2022/01/24 03:32:35;;;;;;;10.25;5.95;;;-0.60;99.90;;;;;;5020334;28;20473;-51
2022/01/24 03:35:01;;;;;;;7.82;5.32;;;-0.60;99.90;;;;;;5025947;28;20021;-51
2022/01/24 03:37:26;;;;;;;7.00;4.80;;;-0.60;99.90;;;;;;5018311;28;20852;-50
2022/01/24 03:39:52;;;;;;;7.20;4.80;;;-0.60;99.90;;;;;;5014882;28;20490;-50
2022/01/24 03:42:17;;;;;;;7.50;4.43;;;-0.70;99.90;;;;;;5019294;28;20434;-50
2022/01/24 03:44:46;;;;;;;9.63;5.68;;;-0.70;99.90;;;;;;5014759;28;20033;-51
2022/01/24 03:50:00;;;;;;;11.93;6.47;;;-0.70;99.90;;;;;;4996910;28;20046;-50
2022/01/24 03:52:26;;;;;;;10.03;6.87;;;-0.80;99.90;;;;;;5022079;28;20494;-51
2022/01/24 03:54:52;;;;;;;9.52;6.35;;;-0.80;99.90;;;;;;5018211;28;20036;-53
2022/01/24 03:57:20;;;;;;;9.40;5.38;;;-0.90;99.90;;;;;;5018087;28;20141;-50
2022/01/24 03:59:46;;;;;;;12.35;7.10;;;-0.90;99.90;;;;;;5014991;28;20033;-50
2022/01/24 04:02:13;;;;;;;9.30;5.47;;;-0.90;99.90;;;;;;5016639;28;20407;-50
2022/01/24 04:04:39;;;;;;;7.88;5.50;;;-1.00;99.90;;;;;;5021993;28;20950;-50
2022/01/24 04:07:05;;;;;;;9.88;5.93;;;-1.10;99.90;;;;;;5012666;28;20131;-49
2022/01/24 04:09:30;;;;;;;12.30;7.15;;;-1.10;99.90;;;;;;5018132;28;20490;-49
2022/01/24 04:11:58;;;;;;;11.57;6.75;;;-1.10;99.90;;;;;;5015614;28;20139;-50
2022/01/24 04:14:35;;;;;;;13.65;8.00;;;-1.20;99.90;;;;;;5016872;28;20030;-51
2022/01/24 04:22:10;;;;;;;15.55;8.90;;;-1.00;99.90;;;;;;5019526;28;20037;-50
2022/01/24 04:24:37;;;;;;;14.88;7.78;;;-1.10;99.90;;;;;;5019835;28;20036;-50
2022/01/24 04:27:03;;;;;;;16.98;8.38;;;-1.00;99.90;;;;;;5022886;28;20397;-50
2022/01/24 04:29:28;;;;;;;13.43;8.23;;;-1.00;99.90;;;;;;5023249;28;20061;-49
2022/01/24 04:31:54;;;;;;;11.95;6.90;;;-1.00;99.90;;;;;;5016281;28;20076;-49
2022/01/24 04:34:20;;;;;;;11.48;7.00;;;-1.00;99.90;;;;;;5024535;28;20030;-48
2022/01/24 04:36:45;;;;;;;11.00;6.20;;;-1.10;99.90;;;;;;5024411;28;20482;-50
2022/01/24 04:39:12;;;;;;;13.80;7.38;;;-1.10;99.90;;;;;;5020334;28;20034;-51
2022/01/24 04:41:41;;;;;;;14.45;6.55;;;-1.20;99.90;;;;;;5015238;28;20748;-49
2022/01/24 04:46:59;;;;;;;5.82;4.93;;;-1.30;99.90;;;;;;5024041;28;20099;-49
2022/01/24 04:54:42;;;;;;;11.98;6.40;;;-1.40;99.90;;;;;;5020604;28;20121;-49
2022/01/24 04:57:23;;;;;;;10.07;7.18;;;-1.30;99.90;;;;;;5030517;28;20465;-52
2022/01/24 04:59:50;;;;;;;10.82;6.35;;;-1.30;99.90;;;;;;5013735;28;20061;-50
2022/01/24 05:02:18;;;;;;;8.40;5.00;;;-1.30;99.90;;;;;;5019032;28;20116;-49
2022/01/24 05:04:44;;;;;;;10.52;5.65;;;-1.30;99.90;;;;;;5012586;28;20041;-50
2022/01/24 05:07:10;;;;;;;8.80;6.07;;;-1.40;99.90;;;;;;5020812;28;20033;-49
2022/01/24 05:09:52;;;;;;;9.88;5.85;;;-1.40;99.90;;;;;;5014373;28;20401;-50
2022/01/24 05:25:40;;;;;;;6.45;4.07;;;-1.60;99.90;;;;;;5023710;28;20090;-50
2022/01/24 05:28:06;;;;;;;6.65;4.93;;;-1.60;99.90;;;;;;5021444;28;20029;-51
2022/01/24 05:30:32;;;;;;;8.52;6.32;;;-1.60;99.90;;;;;;5016583;28;20502;-50
2022/01/24 05:32:57;;;;;;;5.90;4.18;;;-1.60;99.90;;;;;;5020891;28;20030;-50
2022/01/24 05:35:23;;;;;;;6.10;4.75;;;-1.60;99.90;;;;;;5018026;28;20037;-50
2022/01/24 05:37:48;;;;;;;5.47;3.53;;;-1.70;99.90;;;;;;5021058;28;20526;-50
2022/01/24 05:40:14;;;;;;;4.80;3.75;;;-1.80;99.90;;;;;;5021099;28;20068;-50
2022/01/24 05:42:40;;;;;;;6.15;4.47;;;-1.90;99.90;;;;;;5024769;28;20035;-50
2022/01/24 05:45:07;;;;;;;4.20;3.67;;;-1.90;99.90;;;;;;5024961;28;20112;-50
2022/01/24 05:47:33;;;;;;;5.85;5.07;;;-1.80;99.90;;;;;;5021125;28;20052;-50
2022/01/24 05:49:59;;;;;;;12.38;6.65;;;-1.80;99.90;;;;;;5018756;28;20037;-50
2022/01/24 05:52:25;;;;;;;11.68;6.85;;;-1.80;99.90;;;;;;5015555;28;20025;-50
2022/01/24 05:54:51;;;;;;;8.57;5.70;;;-1.90;99.90;;;;;;5017917;28;20029;-50
2022/01/24 05:57:17;;;;;;;11.82;6.07;;;-2.00;99.90;;;;;;5017551;28;20036;-49
2022/01/24 05:59:42;;;;;;;11.82;6.97;;;-2.00;99.90;;;;;;5020102;28;20021;-50
2022/01/24 06:02:08;;;;;;;6.97;5.95;;;-1.90;99.90;;;;;;5022611;28;20481;-50
2022/01/24 06:04:34;;;;;;;10.88;5.82;;;-2.00;99.90;;;;;;5020108;28;20025;-50
2022/01/24 06:06:59;;;;;;;8.88;5.18;;;-2.00;99.90;;;;;;5017319;28;20078;-49
2022/01/24 06:09:25;;;;;;;8.20;5.20;;;-2.00;99.90;;;;;;5014952;28;20036;-49
2022/01/24 06:11:51;;;;;;;8.18;5.70;;;-2.10;99.90;;;;;;5019257;28;20025;-49
2022/01/24 06:14:17;;;;;;;12.10;6.35;;;-2.10;99.90;;;;;;5020109;28;20115;-49
2022/01/24 06:16:43;;;;;;;8.07;5.55;;;-2.10;99.90;;;;;;5030263;28;20192;-49
2022/01/24 06:19:09;;;;;;;8.85;5.63;;;-2.00;99.90;;;;;;5021856;28;20446;-49
2022/01/24 06:21:35;;;;;;;9.88;6.30;;;-2.00;99.90;;;;;;5014669;28;20044;-49
2022/01/24 06:24:00;;;;;;;11.38;6.93;;;-2.00;99.90;;;;;;5024702;28;20028;-50
2022/01/24 06:26:26;;;;;;;12.10;6.55;;;-2.00;99.90;;;;;;5016482;28;20075;-51
2022/01/24 06:28:51;;;;;;;14.13;8.27;;;-2.00;99.90;;;;;;5030189;28;20029;-49
2022/01/24 06:31:19;;;;;;;12.60;6.30;;;-2.10;99.90;;;;;;5017717;28;20046;-49
2022/01/24 06:33:44;;;;;;;14.90;8.52;;;-2.10;99.90;;;;;;5020020;28;20021;-49
2022/01/24 06:36:10;;;;;;;10.45;5.03;;;-2.10;99.90;;;;;;5025667;28;20103;-49
2022/01/24 06:38:36;;;;;;;10.10;6.85;;;-2.10;99.90;;;;;;5021291;28;20056;-49
2022/01/24 06:41:01;;;;;;;8.35;5.97;;;-2.10;99.90;;;;;;5019793;28;20063;-50
2022/01/24 06:43:27;;;;;;;11.05;7.90;;;-2.10;99.90;;;;;;5013854;28;20088;-49
2022/01/24 06:45:53;;;;;;;12.77;7.43;;;-2.10;99.90;;;;;;5020105;28;20033;-49
2022/01/24 06:48:18;;;;;;;14.45;7.18;;;-2.10;99.90;;;;;;5022631;28;20053;-49
2022/01/24 06:50:44;;;;;;;11.55;6.25;;;-2.10;99.90;;;;;;5017833;28;20057;-49
2022/01/24 06:53:10;;;;;;;9.93;6.05;;;-2.10;99.90;;;;;;5021649;28;20678;-49
2022/01/24 06:55:36;;;;;;;8.63;6.68;;;-2.10;99.90;;;;;;5016171;28;20042;-50
2022/01/24 06:58:01;;;;;;;12.50;6.75;;;-2.10;99.90;;;;;;5015577;28;20503;-50
2022/01/24 07:00:29;;;;;;;11.15;6.50;;;-2.20;99.90;;;;;;5018810;28;20034;-50
2022/01/24 07:02:56;;;;;;;10.63;7.07;;;-2.20;99.90;;;;;;5016002;28;20469;-50
2022/01/24 07:05:23;;;;;;;9.68;6.65;;;-2.20;99.90;;;;;;5021260;28;20040;-50
2022/01/24 07:07:49;;;;;;;11.07;6.97;;;-2.10;99.90;;;;;;5020696;28;20531;-50
2022/01/24 07:10:15;;;;;;;12.00;7.10;;;-2.10;99.90;;;;;;5018365;28;20111;-50
2022/01/24 07:12:41;;;;;;;16.83;9.57;;;-2.10;99.90;;;;;;5020262;28;20485;-50
2022/01/24 07:15:13;;;;;;;17.42;7.05;;;-2.20;99.90;;;;;;5018515;28;20048;-50
2022/01/24 07:20:05;;;;;;;13.88;7.93;;;-2.20;99.90;;;;;;5017082;28;20088;-50
2022/01/24 07:22:31;;;;;;;11.52;8.25;;;-2.20;99.90;;;;;;5021165;28;20036;-49
2022/01/24 07:24:56;;;;;;;14.27;8.82;;;-2.20;99.90;;;;;;5015344;28;20034;-49
2022/01/24 07:27:22;;;;;;;12.63;8.85;;;-2.30;99.90;;;;;;5019008;28;20032;-50
2022/01/24 07:29:47;;;;;;;14.55;8.15;;;-2.30;99.90;;;;;;5024620;28;20030;-50
2022/01/24 07:32:13;;;;;;;15.15;8.90;;;-2.20;99.90;;;;;;5024726;28;20509;-49
2022/01/24 07:34:39;;;;;;;15.43;7.95;;;-2.20;99.90;;;;;;5023461;28;20029;-50
2022/01/24 07:37:04;;;;;;;12.30;7.35;;;-2.10;99.90;;;;;;5028403;28;20039;-50
2022/01/24 07:39:31;;;;;;;9.63;5.55;;;-2.10;99.90;;;;;;5023401;28;20052;-50
2022/01/24 07:42:03;;;;;;;10.25;5.63;;;-2.10;99.90;;;;;;5021750;28;20041;-50
2022/01/24 07:44:29;;;;;;;6.55;4.95;;;-2.10;99.90;;;;;;5027469;28;20029;-49
2022/01/24 07:46:54;;;;;;;10.73;6.57;;;-2.10;99.90;;;;;;5022465;28;20036;-50
2022/01/24 07:49:20;;;;;;;9.77;6.65;;;-2.10;99.90;;;;;;5012398;28;20033;-50
2022/01/24 07:51:46;;;;;;;6.68;5.28;;;-2.10;99.90;;;;;;5017952;28;20025;-49
2022/01/24 07:54:12;;;;;;;11.68;5.90;;;-2.10;99.90;;;;;;5028286;28;20387;-49
2022/01/24 07:56:39;;;;;;;13.48;7.80;;;-2.10;99.90;;;;;;5017202;28;20033;-49
2022/01/24 07:59:04;;;;;;;14.52;7.35;;;-2.20;99.90;;;;;;5023444;28;20089;-50
2022/01/24 08:01:30;;;;;;;9.68;6.07;;;-2.10;99.90;;;;;;5014597;28;20129;-50
2022/01/24 08:03:56;;;;;;;10.75;6.43;;;-2.10;99.90;;;;;;5017334;28;20030;-49
2022/01/24 08:06:22;;;;;;;12.68;7.10;;;-2.10;99.90;;;;;;5022176;28;20449;-49
2022/01/24 08:08:47;;;;;;;13.05;7.97;;;-2.00;99.90;;;;;;5030420;28;20033;-51
2022/01/24 08:11:16;;;;;;;12.10;8.60;;;-2.00;99.90;;;;;;5013880;28;20482;-50
2022/01/24 08:13:41;;;;;;;13.30;7.28;;;-2.10;99.90;;;;;;5018784;28;20038;-51
2022/01/24 08:16:07;;;;;;;11.13;7.10;;;-2.00;99.90;;;;;;5016183;28;20084;-49
2022/01/24 08:18:33;;;;;;;9.65;6.75;;;-2.00;99.90;;;;;;5023098;28;20040;-49
2022/01/24 08:20:58;;;;;;;12.95;7.32;;;-2.00;99.90;;;;;;5021430;28;20053;-49
2022/01/24 08:23:24;;;;;;;10.23;6.07;;;-1.90;99.90;;;;;;5022252;28;20438;-49
2022/01/24 08:25:49;;;;;;;15.43;7.53;;;-1.90;99.90;;;;;;5022130;28;20034;-50
2022/01/24 08:28:15;;;;;;;12.13;7.85;;;-1.90;99.90;;;;;;5024467;28;20029;-49
2022/01/24 08:30:41;;;;;;;16.38;8.20;;;-1.80;99.90;;;;;;5024297;28;20057;-49
2022/01/24 08:33:07;;;;;;;10.88;7.30;;;-1.80;99.90;;;;;;5014650;28;20026;-49
2022/01/24 08:35:33;;;;;;;9.68;7.25;;;-1.70;99.90;;;;;;5021965;28;20111;-49
2022/01/24 08:37:59;;;;;;;16.52;7.68;;;-1.60;99.90;;;;;;5015338;28;20044;-49
2022/01/24 08:40:27;;;;;;;11.18;6.15;;;-1.60;99.90;;;;;;5020592;28;20034;-51
2022/01/24 08:43:03;;;;;;;15.32;7.55;;;-1.50;99.90;;;;;;5017302;28;20032;-49
2022/01/24 08:48:08;;;;;;;8.45;5.68;;;-1.40;99.90;;;;;;5021673;28;20034;-50
2022/01/24 08:50:34;;;;;;;14.32;8.68;;;-1.30;99.90;;;;;;5021290;28;20095;-50
2022/01/24 08:53:00;;;;;;;10.85;6.00;;;-1.20;99.90;;;;;;5012312;28;20049;-51
2022/01/24 08:55:28;;;;;;;8.10;5.88;;;-1.20;99.90;;;;;;5016112;28;20433;-51
2022/01/24 08:57:55;;;;;;;14.27;7.00;;;-1.10;99.90;;;;;;5045104;28;20057;-50
2022/01/24 09:00:21;;;;;;;9.45;6.85;;;-0.90;99.90;;;;;;5015397;28;20032;-50
2022/01/24 09:02:48;;;;;;;10.73;7.32;;;-0.80;99.90;;;;;;5021152;28;20026;-50
2022/01/24 09:05:13;;;;;;;13.13;7.55;;;-0.70;99.90;;;;;;5015438;28;20033;-50
2022/01/24 09:07:39;;;;;;;9.40;6.88;;;-0.60;99.90;;;;;;5017095;28;20053;-50
2022/01/24 09:10:06;;;;;;;11.55;7.40;;;-0.50;99.90;;;;;;5021305;28;20067;-50
2022/01/24 09:12:32;;;;;;;9.32;6.63;;;-0.40;99.90;;;;;;5020417;28;20065;-52
2022/01/24 09:14:58;;;;;;;13.63;7.20;;;-0.30;99.90;;;;;;5025162;28;20052;-50
2022/01/24 09:17:23;;;;;;;12.00;6.93;;;-0.20;99.90;;;;;;5018320;28;20040;-50
2022/01/24 09:19:49;;;;;;;13.43;7.45;;;0.00;99.90;;;;;;5017484;28;20095;-50
2022/01/24 09:22:14;;;;;;;14.13;6.82;;;0.10;99.90;;;;;;5008965;28;20034;-51
2022/01/24 09:24:40;;;;;;;12.85;7.50;;;0.20;99.90;;;;;;5019026;28;20037;-50
2022/01/24 09:27:06;;;;;;;12.93;7.43;;;0.40;99.90;;;;;;5017513;28;20037;-51
2022/01/24 09:29:32;;;;;;;11.57;7.55;;;0.40;99.90;;;;;;5020891;28;20101;-50
2022/01/24 09:31:57;;;;;;;16.63;8.40;;;0.40;99.90;;;;;;5023923;28;20030;-50
2022/01/24 09:34:23;;;;;;;16.83;8.20;;;0.50;99.90;;;;;;5014030;28;20202;-50
2022/01/24 09:36:50;;;;;;;14.80;8.73;;;0.60;99.90;;;;;;5015957;28;20033;-50
2022/01/24 09:39:16;;;;;;;14.02;7.68;;;0.80;99.90;;;;;;5019327;28;20064;-50
2022/01/24 09:41:44;;;;;;;13.75;7.88;;;0.80;99.90;;;;;;5019501;28;20553;-50
2022/01/24 09:44:10;;;;;;;14.82;7.90;;;1.00;99.90;;;;;;5014200;28;20037;-50
2022/01/24 09:46:37;;;;;;;11.93;7.00;;;1.10;99.90;;;;;;5017731;28;20049;-50
2022/01/24 09:49:04;;;;;;;18.00;8.73;;;1.10;99.90;;;;;;5020670;28;20430;-51
2022/01/24 09:51:30;;;;;;;17.65;9.93;;;1.10;99.90;;;;;;5020721;28;20549;-50
2022/01/24 09:53:56;;;;;;;17.73;9.20;;;1.10;99.90;;;;;;5017302;28;20082;-52
2022/01/24 09:56:22;;;;;;;14.02;7.78;;;1.20;99.90;;;;;;5018934;28;20124;-50
2022/01/24 09:58:48;;;;;;;16.33;8.95;;;1.30;99.90;;;;;;5015110;28;20491;-51
2022/01/24 10:01:14;;;;;;;12.32;6.90;;;1.40;99.90;;;;;;5016242;28;21091;-50
2022/01/24 10:04:00;;;;;;;14.07;8.52;;;1.40;99.90;;;;;;5016811;28;20041;-50
2022/01/24 10:06:25;;;;;;;17.92;8.73;;;1.50;99.90;;;;;;5017149;28;20562;-50
2022/01/24 10:08:51;;;;;;;20.38;9.70;;;1.60;99.90;;;;;;5017977;28;20017;-50
2022/01/24 10:11:18;;;;;;;16.98;8.77;;;1.70;99.90;;;;;;5019167;28;20030;-50
2022/01/24 10:19:02;;;;;;;14.15;9.30;;;1.80;99.90;;;;;;5017314;28;20108;-51
2022/01/24 10:21:28;;;;;;;16.88;8.57;;;1.90;99.90;;;;;;5025490;28;20025;-50
2022/01/24 10:23:55;;;;;;;15.52;9.10;;;2.00;99.90;;;;;;5019485;28;20051;-50
2022/01/24 10:26:23;;;;;;;17.03;8.70;;;2.00;99.90;;;;;;5023739;28;20075;-50
2022/01/24 10:28:49;;;;;;;14.95;8.50;;;2.10;99.90;;;;;;5025155;28;20030;-51
2022/01/24 10:31:25;;;;;;;17.30;8.43;;;2.20;99.90;;;;;;5021663;28;20040;-50
2022/01/24 10:33:53;;;;;;;17.23;8.98;;;2.20;99.90;;;;;;5014043;28;20040;-50
2022/01/24 10:36:46;;;;;;;17.17;9.82;;;2.30;99.90;;;;;;5015296;28;20041;-50
2022/01/24 10:39:17;;;;;;;19.40;8.65;;;2.40;99.90;;;;;;5016109;28;20099;-50
2022/01/24 10:41:59;;;;;;;13.23;7.90;;;2.30;99.90;;;;;;5014014;28;20049;-50
2022/01/24 10:44:34;;;;;;;13.43;7.95;;;2.30;99.90;;;;;;5022774;28;20056;-50
2022/01/24 10:47:13;;;;;;;14.68;7.18;;;2.40;99.90;;;;;;5024887;28;20071;-50
2022/01/24 10:49:40;;;;;;;12.88;7.30;;;2.50;99.90;;;;;;5024611;28;20029;-51
2022/01/24 10:52:11;;;;;;;13.13;7.10;;;2.50;99.90;;;;;;5022908;28;20491;-52
2022/01/24 10:54:37;;;;;;;14.70;7.65;;;2.50;99.90;;;;;;5016916;28;20474;-51
2022/01/24 10:57:03;;;;;;;11.80;6.45;;;2.50;99.90;;;;;;5021721;28;20021;-50
2022/01/24 10:59:28;;;;;;;12.93;6.85;;;2.60;99.90;;;;;;5020984;28;20031;-50
2022/01/24 11:02:01;;;;;;;14.00;7.82;;;2.50;99.90;;;;;;5018332;28;20041;-50
2022/01/24 11:04:26;;;;;;;13.82;7.32;;;2.70;99.90;;;;;;5014672;28;20525;-50
2022/01/24 11:06:59;;;;;;;13.07;7.93;;;2.60;99.90;;;;;;5018488;28;20137;-50
2022/01/24 11:09:25;;;;;;;13.93;8.18;;;2.70;99.90;;;;;;5018800;28;20032;-50
2022/01/24 11:12:01;;;;;;;13.30;7.65;;;2.70;99.90;;;;;;5023861;28;20030;-50
2022/01/24 11:14:29;;;;;;;17.13;7.95;;;2.70;99.90;;;;;;5024582;28;20040;-50
2022/01/24 11:16:58;;;;;;;18.20;8.88;;;2.80;99.90;;;;;;5021556;28;20043;-50
2022/01/24 11:19:33;;;;;;;14.73;7.18;;;2.80;99.90;;;;;;5028822;28;20117;-49
2022/01/24 11:22:05;;;;;;;11.98;7.05;;;2.90;99.90;;;;;;5016358;28;20091;-50
2022/01/24 11:24:45;;;;;;;14.80;7.88;;;2.90;99.90;;;;;;5018290;28;20087;-50
2022/01/24 11:27:11;;;;;;;16.23;8.30;;;3.00;99.90;;;;;;5020409;28;20028;-50
2022/01/24 11:29:38;;;;;;;13.85;8.05;;;3.00;99.90;;;;;;5021443;28;20919;-50
2022/01/24 11:32:22;;;;;;;16.13;9.35;;;3.00;99.90;;;;;;5020420;28;20092;-49
2022/01/24 11:34:51;;;;;;;20.90;10.18;;;3.00;99.90;;;;;;5016157;28;20028;-52
2022/01/24 11:37:35;;;;;;;;;;;3.10;99.90;;;;;;5014812;28;20037;-50
2022/01/24 11:40:07;;;;;;;15.77;8.07;;;3.00;99.90;;;;;;5023352;28;19915;-49
2022/01/24 11:42:35;;;;;;;18.60;10.25;;;3.00;99.90;;;;;;5026457;28;20039;-49
2022/01/24 11:45:05;;;;;;;15.52;8.55;;;3.00;99.90;;;;;;5019952;28;20508;-50
2022/01/24 11:47:31;;;;;;;21.60;9.15;;;3.00;99.90;;;;;;5030042;28;20125;-50
2022/01/24 11:49:58;;;;;;;14.75;7.68;;;3.10;99.90;;;;;;5023804;28;20021;-50
2022/01/24 11:52:33;;;;;;;18.10;8.07;;;3.10;99.90;;;;;;5024473;28;20097;-49
2022/01/24 11:57:42;;;;;;;17.77;8.95;;;3.10;99.90;;;;;;5020606;28;20025;-52
2022/01/24 12:00:07;;;;;;;19.13;9.25;;;3.10;99.90;;;;;;5028726;28;20450;-50
2022/01/24 12:02:47;;;;;;;34.55;21.27;;;3.10;99.90;;;;;;5029074;28;20032;-50
2022/01/24 12:05:18;;;;;;;20.20;11.75;;;3.00;99.90;;;;;;5014141;28;20033;-50
2022/01/24 12:07:50;;;;;;;20.08;13.23;;;3.00;99.90;;;;;;5019172;28;20026;-52
2022/01/24 12:10:26;;;;;;;18.90;9.13;;;3.10;99.90;;;;;;5011248;28;20164;-49
2022/01/24 12:12:55;;;;;;;19.88;11.15;;;3.10;99.90;;;;;;5016685;28;20034;-51
2022/01/24 12:15:36;;;;;;;22.60;12.32;;;3.20;99.90;;;;;;5008683;28;20041;-49
2022/01/24 12:18:06;;;;;;;14.82;7.78;;;3.20;99.90;;;;;;5013624;28;20111;-50
2022/01/24 12:20:32;;;;;;;13.55;7.43;;;3.20;99.90;;;;;;5019277;28;20954;-50
2022/01/24 12:23:19;;;;;;;12.93;7.88;;;3.10;99.90;;;;;;5010843;28;20038;-50
2022/01/24 12:25:57;;;;;;;14.27;6.78;;;3.20;99.90;;;;;;5027622;28;20042;-50
2022/01/24 12:28:31;;;;;;;13.52;7.45;;;3.20;99.90;;;;;;5019060;28;20057;-53
2022/01/24 12:31:06;;;;;;;13.50;7.78;;;3.10;99.90;;;;;;5017882;28;20075;-50
2022/01/24 12:33:36;;;;;;;19.35;7.63;;;3.10;99.90;;;;;;5022111;28;20066;-51
2022/01/24 12:36:04;;;;;;;14.05;7.10;;;3.10;99.90;;;;;;5018729;28;20084;-52
2022/01/24 12:38:40;;;;;;;13.52;7.20;;;3.10;99.90;;;;;;5017473;28;20034;-52
2022/01/24 12:41:33;;;;;;;9.20;5.45;;;3.10;99.90;;;;;;5015616;28;20413;-51
2022/01/24 12:46:31;;;;;;;14.45;6.93;;;3.00;99.90;;;;;;5019837;28;20029;-51
2022/01/24 12:48:59;;;;;;;13.52;7.72;;;3.00;99.90;;;;;;5018981;28;20497;-51
2022/01/24 12:51:27;;;;;;;15.20;7.90;;;3.00;99.90;;;;;;5051004;28;20037;-50
2022/01/24 12:53:54;;;;;;;15.88;7.68;;;3.00;99.90;;;;;;5024677;28;20386;-51
2022/01/24 12:56:29;;;;;;;15.52;7.18;;;3.00;99.90;;;;;;5019148;28;20558;-51
2022/01/24 12:58:56;;;;;;;21.98;7.82;;;3.00;99.90;;;;;;5025916;28;20029;-51
2022/01/24 13:01:27;;;;;;;15.52;6.78;;;3.00;99.90;;;;;;5024657;28;20106;-50
2022/01/24 13:04:02;;;;;;;11.85;6.95;;;3.00;99.90;;;;;;5017673;28;20079;-51
2022/01/24 13:06:33;;;;;;;15.18;7.47;;;3.00;99.90;;;;;;5020503;28;20513;-52
2022/01/24 13:09:01;;;;;;;12.63;6.60;;;3.00;99.90;;;;;;5020397;28;20037;-50
2022/01/24 13:11:29;;;;;;;11.90;7.63;;;3.00;99.90;;;;;;5025323;28;20029;-51
2022/01/24 13:14:04;;;;;;;13.83;7.43;;;3.00;99.90;;;;;;5022956;28;20034;-51
2022/01/24 13:25:01;;;;;;;14.75;7.60;;;2.90;99.90;;;;;;5018537;28;20025;-50
2022/01/24 13:27:55;;;;;;;16.33;7.55;;;2.90;99.90;;;;;;5017860;28;20079;-50
2022/01/24 13:30:46;;;;;;;17.38;7.75;;;2.90;99.90;;;;;;5014784;28;20040;-51
2022/01/24 13:33:19;;;;;;;12.68;6.93;;;2.90;99.90;;;;;;5035674;28;20509;-51
2022/01/24 13:35:51;;;;;;;20.33;11.70;;;2.90;99.90;;;;;;5032351;28;20033;-50
2022/01/24 13:38:47;;;;;;;17.38;8.13;;;2.90;99.90;;;;;;5036780;28;20068;-50
2022/01/24 13:41:16;;;;;;;45.65;19.50;;;2.90;99.90;;;;;;5036905;28;20060;-50
2022/01/24 13:44:02;;;;;;;15.57;7.38;;;2.90;99.90;;;;;;5041148;28;20881;-49
2022/01/24 13:46:28;;;;;;;18.00;8.35;;;2.90;99.90;;;;;;5038228;28;20033;-50
2022/01/24 13:48:57;;;;;;;22.02;10.55;;;2.80;99.90;;;;;;5037445;28;20636;-50
2022/01/24 13:51:36;;;;;;;12.70;7.38;;;2.80;99.90;;;;;;5031962;28;20057;-50
2022/01/24 13:54:06;;;;;;;14.60;7.32;;;2.70;99.90;;;;;;5043176;28;20021;-50
2022/01/24 13:56:46;;;;;;;17.30;7.85;;;2.70;99.90;;;;;;5034571;28;20025;-50
2022/01/24 13:59:14;;;;;;;16.70;8.60;;;2.70;99.90;;;;;;5037507;28;20021;-50
2022/01/24 14:02:01;;;;;;;14.82;7.70;;;2.70;99.90;;;;;;5037897;28;20037;-53
2022/01/24 14:04:27;;;;;;;14.18;7.43;;;2.70;99.90;;;;;;5037237;28;20665;-50
2022/01/24 14:07:13;;;;;;;24.63;12.45;;;2.70;99.90;;;;;;5032303;28;20067;-51
2022/01/24 14:09:39;;;;;;;14.82;7.65;;;2.70;99.90;;;;;;5036693;28;20032;-49
2022/01/24 14:12:08;;;;;;;21.17;9.18;;;2.70;99.90;;;;;;5034753;28;20536;-50
2022/01/24 14:14:58;;;;;;;;;;;2.70;99.90;;;;;;5037125;28;20025;-50
2022/01/24 14:19:58;;;;;;;17.13;7.68;;;2.70;99.90;;;;;;5033878;28;19935;-49
2022/01/24 14:22:40;;;;;;;44.90;17.38;;;2.70;99.90;;;;;;5037170;28;20029;-49
2022/01/24 14:25:11;;;;;;;15.10;8.30;;;2.70;99.90;;;;;;5034382;28;20570;-49
2022/01/24 14:27:41;;;;;;;16.58;8.30;;;2.80;99.90;;;;;;5031510;28;20028;-49
2022/01/24 14:30:31;;;;;;;14.35;7.15;;;2.90;99.90;;;;;;5033742;28;20032;-50
2022/01/24 14:33:11;;;;;;;13.80;7.00;;;2.90;99.90;;;;;;5012180;28;20041;-51
2022/01/24 14:35:48;;;;;;;17.42;7.15;;;2.90;99.90;;;;;;5015478;28;20033;-51
2022/01/24 14:38:29;;;;;;;12.98;7.43;;;2.90;99.90;;;;;;5013392;28;20036;-50
2022/01/24 14:40:58;;;;;;;16.40;7.82;;;3.00;99.90;;;;;;5018720;28;20132;-50
2022/01/24 14:46:22;;;;;;;12.60;6.53;;;3.00;99.90;;;;;;5017951;28;20082;-50
2022/01/24 14:48:50;;;;;;;12.65;6.53;;;3.00;99.90;;;;;;5013813;28;20044;-50
2022/01/24 14:51:23;;;;;;;12.73;6.82;;;3.10;99.90;;;;;;5016144;28;20057;-50
2022/01/24 14:53:53;;;;;;;11.52;6.80;;;3.10;99.90;;;;;;5019629;28;20462;-50
2022/01/24 14:56:20;;;;;;;16.15;7.72;;;3.10;99.90;;;;;;5020075;28;20029;-51
2022/01/24 14:58:46;;;;;;;14.27;6.70;;;3.20;99.90;;;;;;5022642;28;20108;-51
2022/01/24 15:01:12;;;;;;;10.52;6.60;;;3.20;99.90;;;;;;5025133;28;20132;-50